KAL712 RJAA-RKSI
Flight info
| Callsign | KAL712 |
|---|---|
| Flight time | 2h 1m |
| Altitude | 34000 |
| Route | ENPAR Y16 SAPRA Y685 GUKDO GUKDO3C |
| Aircraft | A359/H-SDE2E3GHIJ3J4J5LM1ORWXY/LB1D1 |
Departure
| Time | 2026-05-06 03:48 |
|---|---|
| Airport | Narita International Airport (RJAA) |
Arrival
| Time | 2026-05-06 05:49 |
|---|---|
| Airport | Incheon International Airport (RKSI) |
| Time | Latitude | Longitude | Altitude | Speed | Heading |
|---|---|---|---|---|---|
| 2026-05-06 03:28 | 35.76069 | 140.38449 | 150 ft | 0 kts | 60° |
| 2026-05-06 03:36 | 35.76063 | 140.38436 | 142 ft | 4 kts | 60° |
| 2026-05-06 03:37 | 35.76050 | 140.38408 | 149 ft | 4 kts | 64° |
| 2026-05-06 03:37 | 35.76038 | 140.38381 | 148 ft | 4 kts | 45° |
| 2026-05-06 03:37 | 35.76023 | 140.38364 | 150 ft | 4 kts | 15° |
| 2026-05-06 03:37 | 35.76006 | 140.38364 | 150 ft | 4 kts | 333° |
| 2026-05-06 03:38 | 35.75983 | 140.38380 | 150 ft | 4 kts | 328° |
| 2026-05-06 03:38 | 35.75972 | 140.38389 | 150 ft | 1 kts | 329° |
| 2026-05-06 03:38 | 35.75971 | 140.38389 | 150 ft | 0 kts | 329° |
| 2026-05-06 03:44 | 35.75977 | 140.38386 | 150 ft | 5 kts | 329° |
| 2026-05-06 03:44 | 35.76051 | 140.38331 | 150 ft | 20 kts | 329° |
| 2026-05-06 03:44 | 35.76213 | 140.38214 | 150 ft | 33 kts | 329° |
| 2026-05-06 03:44 | 35.76445 | 140.38045 | 150 ft | 44 kts | 329° |
| 2026-05-06 03:45 | 35.76613 | 140.37895 | 150 ft | 0 kts | 289° |
| 2026-05-06 03:45 | 35.76615 | 140.37886 | 150 ft | 5 kts | 289° |
| 2026-05-06 03:45 | 35.76641 | 140.37801 | 150 ft | 14 kts | 299° |
| 2026-05-06 03:45 | 35.76748 | 140.37703 | 150 ft | 23 kts | 325° |
| 2026-05-06 03:46 | 35.76908 | 140.37601 | 150 ft | 31 kts | 334° |
| 2026-05-06 03:46 | 35.77126 | 140.37468 | 150 ft | 39 kts | 334° |
| 2026-05-06 03:46 | 35.77346 | 140.37252 | 149 ft | 43 kts | 303° |
| 2026-05-06 03:46 | 35.77492 | 140.36987 | 150 ft | 14 kts | 270° |
| 2026-05-06 03:47 | 35.77456 | 140.36888 | 150 ft | 13 kts | 232° |
| 2026-05-06 03:47 | 35.77392 | 140.36871 | 149 ft | 10 kts | 155° |
| 2026-05-06 03:47 | 35.77318 | 140.36919 | 148 ft | 15 kts | 150° |
| 2026-05-06 03:47 | 35.77028 | 140.37127 | 148 ft | 85 kts | 150° |
| 2026-05-06 03:48 | 35.76328 | 140.37634 | 151 ft | 147 kts | 149° |
| 2026-05-06 03:48 | 35.75324 | 140.38376 | 374 ft | 184 kts | 150° |
| 2026-05-06 03:48 | 35.74208 | 140.39174 | 1126 ft | 181 kts | 152° |
| 2026-05-06 03:48 | 35.73159 | 140.39940 | 2150 ft | 174 kts | 152° |
| 2026-05-06 03:49 | 35.72062 | 140.40738 | 2618 ft | 193 kts | 153° |
| 2026-05-06 03:49 | 35.70845 | 140.41608 | 3129 ft | 211 kts | 152° |
| 2026-05-06 03:49 | 35.69501 | 140.42569 | 3499 ft | 238 kts | 153° |
| 2026-05-06 03:49 | 35.68020 | 140.43631 | 4126 ft | 251 kts | 153° |
| 2026-05-06 03:50 | 35.66721 | 140.44563 | 4876 ft | 258 kts | 152° |
| 2026-05-06 03:50 | 35.65152 | 140.45695 | 5864 ft | 264 kts | 153° |
| 2026-05-06 03:50 | 35.63562 | 140.46842 | 6939 ft | 265 kts | 153° |
| 2026-05-06 03:50 | 35.61962 | 140.47990 | 7890 ft | 268 kts | 152° |
| 2026-05-06 03:51 | 35.60344 | 140.49149 | 8828 ft | 271 kts | 152° |
| 2026-05-06 03:51 | 35.59792 | 140.49544 | 9151 ft | 272 kts | 152° |
| 2026-05-06 03:51 | 35.58458 | 140.50502 | 9943 ft | 275 kts | 150° |
| 2026-05-06 03:51 | 35.56776 | 140.51716 | 10618 ft | 289 kts | 151° |
| 2026-05-06 03:52 | 35.54927 | 140.52927 | 10951 ft | 312 kts | 159° |
| 2026-05-06 03:52 | 35.52747 | 140.53531 | 11276 ft | 332 kts | 180° |
| 2026-05-06 03:52 | 35.50447 | 140.53014 | 11793 ft | 343 kts | 203° |
| 2026-05-06 03:52 | 35.48461 | 140.51398 | 12582 ft | 345 kts | 225° |
| 2026-05-06 03:53 | 35.47141 | 140.48960 | 13517 ft | 345 kts | 248° |
| 2026-05-06 03:53 | 35.46554 | 140.46148 | 14383 ft | 346 kts | 257° |
| 2026-05-06 03:53 | 35.45768 | 140.43319 | 15174 ft | 346 kts | 247° |
| 2026-05-06 03:53 | 35.45122 | 140.40478 | 15957 ft | 349 kts | 262° |
| 2026-05-06 03:54 | 35.45319 | 140.37498 | 16787 ft | 356 kts | 282° |
| 2026-05-06 03:54 | 35.46337 | 140.34748 | 17597 ft | 362 kts | 293° |
| 2026-05-06 03:54 | 35.47678 | 140.32108 | 18393 ft | 369 kts | 301° |
| 2026-05-06 03:54 | 35.49472 | 140.29800 | 19079 ft | 382 kts | 314° |
| 2026-05-06 03:55 | 35.51844 | 140.28164 | 19770 ft | 401 kts | 332° |
| 2026-05-06 03:55 | 35.54654 | 140.27526 | 20469 ft | 423 kts | 350° |
| 2026-05-06 03:55 | 35.57634 | 140.27587 | 21156 ft | 430 kts | 352° |
| 2026-05-06 03:55 | 35.60604 | 140.27464 | 21816 ft | 427 kts | 345° |
| 2026-05-06 03:56 | 35.63606 | 140.27297 | 22435 ft | 438 kts | 351° |
| 2026-05-06 03:56 | 35.66683 | 140.27517 | 23102 ft | 445 kts | 354° |
| 2026-05-06 03:56 | 35.69771 | 140.27648 | 23728 ft | 440 kts | 347° |
| 2026-05-06 03:56 | 35.72749 | 140.27137 | 24234 ft | 426 kts | 334° |
| 2026-05-06 03:57 | 35.74180 | 140.26573 | 24450 ft | 419 kts | 327° |
| 2026-05-06 03:57 | 35.76659 | 140.24937 | 24883 ft | 406 kts | 314° |
| 2026-05-06 03:57 | 35.78710 | 140.22650 | 25329 ft | 394 kts | 301° |
| 2026-05-06 03:57 | 35.79966 | 140.20390 | 25724 ft | 384 kts | 289° |
| 2026-05-06 03:58 | 35.80466 | 140.18876 | 25977 ft | 378 kts | 280° |
| 2026-05-06 03:58 | 35.80879 | 140.15700 | 26525 ft | 373 kts | 269° |
| 2026-05-06 03:58 | 35.81120 | 140.12504 | 27006 ft | 378 kts | 271° |
| 2026-05-06 03:58 | 35.81528 | 140.09269 | 27493 ft | 384 kts | 274° |
| 2026-05-06 03:59 | 35.82069 | 140.06016 | 27975 ft | 390 kts | 276° |
| 2026-05-06 03:59 | 35.82689 | 140.02751 | 28450 ft | 395 kts | 276° |
| 2026-05-06 03:59 | 35.83355 | 139.99452 | 28905 ft | 399 kts | 277° |
| 2026-05-06 03:59 | 35.84054 | 139.96117 | 29366 ft | 403 kts | 277° |
| 2026-05-06 04:00 | 35.84767 | 139.92751 | 29812 ft | 407 kts | 277° |
| 2026-05-06 04:00 | 35.85488 | 139.89367 | 30249 ft | 411 kts | 277° |
| 2026-05-06 04:00 | 35.86223 | 139.85927 | 30628 ft | 414 kts | 277° |
| 2026-05-06 04:00 | 35.86961 | 139.82492 | 31062 ft | 416 kts | 277° |
| 2026-05-06 04:01 | 35.87709 | 139.79037 | 31482 ft | 417 kts | 277° |
| 2026-05-06 04:01 | 35.88452 | 139.75572 | 31886 ft | 419 kts | 277° |
| 2026-05-06 04:01 | 35.89193 | 139.72097 | 32285 ft | 420 kts | 277° |
| 2026-05-06 04:01 | 35.89937 | 139.68602 | 32653 ft | 421 kts | 277° |
| 2026-05-06 04:02 | 35.90681 | 139.65106 | 33032 ft | 423 kts | 277° |
| 2026-05-06 04:02 | 35.91422 | 139.61609 | 33571 ft | 419 kts | 277° |
| 2026-05-06 04:02 | 35.91996 | 139.58117 | 34060 ft | 414 kts | 274° |
| 2026-05-06 04:02 | 35.92469 | 139.54626 | 34222 ft | 411 kts | 273° |
| 2026-05-06 04:03 | 35.93328 | 139.47735 | 34240 ft | 408 kts | 272° |
| 2026-05-06 04:03 | 35.94161 | 139.40761 | 34239 ft | 408 kts | 272° |
| 2026-05-06 04:04 | 35.94986 | 139.33883 | 34237 ft | 408 kts | 272° |
| 2026-05-06 04:04 | 35.95820 | 139.26955 | 34236 ft | 408 kts | 272° |
| 2026-05-06 04:05 | 35.96654 | 139.20012 | 34233 ft | 409 kts | 272° |
| 2026-05-06 04:05 | 35.97488 | 139.13060 | 34231 ft | 408 kts | 272° |
| 2026-05-06 04:06 | 35.98175 | 139.07290 | 34231 ft | 408 kts | 271° |
| 2026-05-06 04:06 | 35.99128 | 138.99244 | 34232 ft | 407 kts | 271° |
| 2026-05-06 04:07 | 35.99943 | 138.92322 | 34227 ft | 407 kts | 271° |
| 2026-05-06 04:07 | 36.00396 | 138.86520 | 34227 ft | 402 kts | 266° |
| 2026-05-06 04:08 | 36.00536 | 138.79675 | 34215 ft | 401 kts | 266° |
| 2026-05-06 04:08 | 36.00629 | 138.72779 | 34227 ft | 401 kts | 265° |
| 2026-05-06 04:09 | 36.00680 | 138.65888 | 34219 ft | 401 kts | 265° |
| 2026-05-06 04:09 | 36.00734 | 138.58995 | 34217 ft | 401 kts | 265° |
| 2026-05-06 04:10 | 36.00801 | 138.52106 | 34206 ft | 401 kts | 265° |
| 2026-05-06 04:10 | 36.00862 | 138.45201 | 34200 ft | 401 kts | 265° |
| 2026-05-06 04:11 | 36.00915 | 138.38366 | 34195 ft | 401 kts | 265° |
| 2026-05-06 04:11 | 36.00966 | 138.31480 | 34191 ft | 401 kts | 265° |
| 2026-05-06 04:12 | 36.01014 | 138.24603 | 34184 ft | 400 kts | 265° |
| 2026-05-06 04:12 | 36.01062 | 138.17722 | 34170 ft | 399 kts | 265° |
| 2026-05-06 04:13 | 36.01102 | 138.10870 | 34167 ft | 399 kts | 265° |
| 2026-05-06 04:13 | 36.01135 | 138.04035 | 34162 ft | 398 kts | 265° |
| 2026-05-06 04:14 | 36.01167 | 137.97208 | 34166 ft | 397 kts | 265° |
| 2026-05-06 04:14 | 36.01196 | 137.90452 | 34164 ft | 396 kts | 265° |
| 2026-05-06 04:15 | 36.01221 | 137.83648 | 34156 ft | 396 kts | 264° |
| 2026-05-06 04:15 | 36.01240 | 137.76823 | 34171 ft | 398 kts | 265° |
| 2026-05-06 04:16 | 36.01256 | 137.69989 | 34166 ft | 398 kts | 265° |
| 2026-05-06 04:16 | 36.01273 | 137.63143 | 34174 ft | 398 kts | 265° |
| 2026-05-06 04:17 | 36.01283 | 137.56298 | 34181 ft | 398 kts | 265° |
| 2026-05-06 04:17 | 36.01286 | 137.49469 | 34181 ft | 397 kts | 265° |
| 2026-05-06 04:18 | 36.01291 | 137.42654 | 34189 ft | 397 kts | 265° |
| 2026-05-06 04:18 | 36.01285 | 137.35820 | 34185 ft | 397 kts | 264° |
| 2026-05-06 04:19 | 36.01276 | 137.28989 | 34190 ft | 398 kts | 264° |
| 2026-05-06 04:19 | 36.01265 | 137.22198 | 34192 ft | 397 kts | 264° |
| 2026-05-06 04:20 | 36.01251 | 137.15379 | 34177 ft | 395 kts | 264° |
| 2026-05-06 04:20 | 36.01233 | 137.08579 | 34174 ft | 396 kts | 264° |
| 2026-05-06 04:21 | 36.01210 | 137.01762 | 34167 ft | 397 kts | 264° |
| 2026-05-06 04:21 | 36.01187 | 136.94952 | 34089 ft | 397 kts | 263° |
| 2026-05-06 04:22 | 36.01157 | 136.88090 | 34169 ft | 399 kts | 263° |
| 2026-05-06 04:23 | 36.01105 | 136.77801 | 34165 ft | 400 kts | 263° |
| 2026-05-06 04:23 | 36.01077 | 136.70942 | 34167 ft | 400 kts | 263° |
| 2026-05-06 04:24 | 36.01030 | 136.64084 | 34150 ft | 399 kts | 262° |
| 2026-05-06 04:24 | 36.00976 | 136.57282 | 34152 ft | 397 kts | 262° |
| 2026-05-06 04:25 | 36.00922 | 136.50480 | 34145 ft | 395 kts | 262° |
| 2026-05-06 04:25 | 36.00866 | 136.43689 | 34144 ft | 395 kts | 262° |
| 2026-05-06 04:26 | 36.00807 | 136.36919 | 34136 ft | 393 kts | 262° |
| 2026-05-06 04:26 | 36.00748 | 136.30160 | 34139 ft | 393 kts | 262° |
| 2026-05-06 04:27 | 36.00681 | 136.23457 | 34130 ft | 392 kts | 262° |
| 2026-05-06 04:27 | 36.00610 | 136.16758 | 34136 ft | 391 kts | 262° |
| 2026-05-06 04:28 | 36.00536 | 136.10019 | 34127 ft | 390 kts | 262° |
| 2026-05-06 04:28 | 36.00456 | 136.03332 | 34135 ft | 389 kts | 261° |
| 2026-05-06 04:29 | 36.00375 | 135.96639 | 34124 ft | 389 kts | 261° |
| 2026-05-06 04:29 | 36.00292 | 135.89989 | 34140 ft | 389 kts | 261° |
| 2026-05-06 04:30 | 36.00205 | 135.83295 | 34130 ft | 390 kts | 261° |
| 2026-05-06 04:30 | 36.00113 | 135.76599 | 34126 ft | 390 kts | 261° |
| 2026-05-06 04:31 | 36.00018 | 135.69889 | 34133 ft | 390 kts | 261° |
| 2026-05-06 04:31 | 35.99919 | 135.63195 | 34132 ft | 390 kts | 261° |
| 2026-05-06 04:32 | 35.99816 | 135.56490 | 34125 ft | 390 kts | 261° |
| 2026-05-06 04:32 | 35.99709 | 135.49788 | 34123 ft | 390 kts | 261° |
| 2026-05-06 04:33 | 35.99599 | 135.43091 | 34123 ft | 390 kts | 261° |
| 2026-05-06 04:33 | 35.99485 | 135.36441 | 34126 ft | 390 kts | 261° |
| 2026-05-06 04:34 | 35.99367 | 135.29746 | 34123 ft | 390 kts | 261° |
| 2026-05-06 04:34 | 35.99246 | 135.23055 | 34117 ft | 389 kts | 261° |
| 2026-05-06 04:35 | 35.99121 | 135.16381 | 34117 ft | 389 kts | 261° |
| 2026-05-06 04:35 | 35.98993 | 135.09709 | 34118 ft | 388 kts | 261° |
| 2026-05-06 04:36 | 35.98861 | 135.03050 | 34116 ft | 388 kts | 261° |
| 2026-05-06 04:36 | 35.98726 | 134.96402 | 34114 ft | 387 kts | 261° |
| 2026-05-06 04:37 | 35.98588 | 134.89762 | 34114 ft | 386 kts | 261° |
| 2026-05-06 04:37 | 35.98447 | 134.83176 | 34113 ft | 385 kts | 260° |
| 2026-05-06 04:38 | 35.98301 | 134.76562 | 34112 ft | 385 kts | 260° |
| 2026-05-06 04:38 | 35.98147 | 134.69963 | 34111 ft | 385 kts | 260° |
| 2026-05-06 04:39 | 35.97993 | 134.63349 | 34105 ft | 385 kts | 260° |
| 2026-05-06 04:39 | 35.97837 | 134.56724 | 34111 ft | 386 kts | 260° |
| 2026-05-06 04:40 | 35.97676 | 134.50100 | 34110 ft | 386 kts | 260° |
| 2026-05-06 04:40 | 35.97510 | 134.43460 | 34109 ft | 387 kts | 260° |
| 2026-05-06 04:41 | 35.97342 | 134.36846 | 34107 ft | 388 kts | 260° |
| 2026-05-06 04:41 | 35.97168 | 134.30178 | 34111 ft | 389 kts | 261° |
| 2026-05-06 04:42 | 35.96990 | 134.23490 | 34107 ft | 391 kts | 261° |
| 2026-05-06 04:42 | 35.96807 | 134.16751 | 34112 ft | 393 kts | 261° |
| 2026-05-06 04:43 | 35.96620 | 134.10026 | 34112 ft | 395 kts | 261° |
| 2026-05-06 04:43 | 35.96427 | 134.03214 | 34112 ft | 398 kts | 261° |
| 2026-05-06 04:44 | 35.96229 | 133.96363 | 34111 ft | 401 kts | 261° |
| 2026-05-06 04:44 | 35.96027 | 133.89466 | 34098 ft | 403 kts | 262° |
| 2026-05-06 04:45 | 35.95819 | 133.82536 | 34113 ft | 405 kts | 262° |
| 2026-05-06 04:45 | 35.95605 | 133.75565 | 34118 ft | 407 kts | 262° |
| 2026-05-06 04:46 | 35.95386 | 133.68562 | 34108 ft | 409 kts | 262° |
| 2026-05-06 04:46 | 35.95162 | 133.61522 | 34104 ft | 411 kts | 262° |
| 2026-05-06 04:47 | 35.94932 | 133.54453 | 34099 ft | 413 kts | 262° |
| 2026-05-06 04:47 | 35.94699 | 133.47388 | 34100 ft | 415 kts | 262° |
| 2026-05-06 04:48 | 35.94459 | 133.40256 | 34105 ft | 417 kts | 262° |
| 2026-05-06 04:48 | 35.94214 | 133.33086 | 34107 ft | 419 kts | 263° |
| 2026-05-06 04:49 | 35.93962 | 133.25885 | 34107 ft | 421 kts | 263° |
| 2026-05-06 04:49 | 35.93705 | 133.18636 | 34104 ft | 424 kts | 263° |
| 2026-05-06 04:50 | 35.93445 | 133.11397 | 34105 ft | 425 kts | 263° |
| 2026-05-06 04:50 | 35.93178 | 133.04090 | 34107 ft | 427 kts | 263° |
| 2026-05-06 04:51 | 35.92905 | 132.96755 | 34109 ft | 429 kts | 263° |
| 2026-05-06 04:51 | 35.92626 | 132.89381 | 34104 ft | 431 kts | 264° |
| 2026-05-06 04:52 | 35.92342 | 132.81985 | 34102 ft | 432 kts | 264° |
| 2026-05-06 04:52 | 35.92052 | 132.74566 | 34107 ft | 433 kts | 264° |
| 2026-05-06 04:53 | 35.91756 | 132.67121 | 34106 ft | 435 kts | 264° |
| 2026-05-06 04:53 | 35.91456 | 132.59698 | 34106 ft | 437 kts | 264° |
| 2026-05-06 04:54 | 35.91149 | 132.52184 | 34103 ft | 439 kts | 264° |
| 2026-05-06 04:54 | 35.90888 | 132.45908 | 34103 ft | 441 kts | 264° |
| 2026-05-06 04:55 | 35.90570 | 132.38336 | 34099 ft | 443 kts | 265° |
| 2026-05-06 04:55 | 35.90245 | 132.30727 | 34101 ft | 445 kts | 265° |
| 2026-05-06 04:56 | 35.89914 | 132.23089 | 34100 ft | 447 kts | 265° |
| 2026-05-06 04:56 | 35.89578 | 132.15432 | 34099 ft | 448 kts | 265° |
| 2026-05-06 04:57 | 35.89235 | 132.07760 | 34099 ft | 449 kts | 265° |
| 2026-05-06 04:57 | 35.88886 | 132.00048 | 34099 ft | 451 kts | 265° |
| 2026-05-06 04:58 | 35.88531 | 131.92319 | 34101 ft | 452 kts | 265° |
| 2026-05-06 04:58 | 35.88171 | 131.84582 | 34096 ft | 453 kts | 266° |
| 2026-05-06 04:59 | 35.87803 | 131.76809 | 34098 ft | 454 kts | 266° |
| 2026-05-06 04:59 | 35.87472 | 131.69899 | 34096 ft | 456 kts | 266° |
| 2026-05-06 05:00 | 35.87199 | 131.64256 | 34098 ft | 457 kts | 266° |
| 2026-05-06 05:00 | 35.86816 | 131.56414 | 34091 ft | 459 kts | 266° |
| 2026-05-06 05:01 | 35.86426 | 131.48543 | 34089 ft | 460 kts | 266° |
| 2026-05-06 05:01 | 35.86030 | 131.40662 | 34090 ft | 461 kts | 266° |
| 2026-05-06 05:02 | 35.85628 | 131.32770 | 34090 ft | 462 kts | 267° |
| 2026-05-06 05:02 | 35.85219 | 131.24847 | 34094 ft | 463 kts | 267° |
| 2026-05-06 05:03 | 35.84805 | 131.16915 | 34086 ft | 465 kts | 267° |
| 2026-05-06 05:03 | 35.84383 | 131.08944 | 34089 ft | 466 kts | 267° |
| 2026-05-06 05:04 | 35.84007 | 131.01906 | 34085 ft | 467 kts | 268° |
| 2026-05-06 05:04 | 35.83627 | 130.94883 | 34082 ft | 468 kts | 268° |
| 2026-05-06 05:05 | 35.83189 | 130.86877 | 34081 ft | 469 kts | 268° |
| 2026-05-06 05:05 | 35.82746 | 130.78864 | 34089 ft | 469 kts | 268° |
| 2026-05-06 05:06 | 35.82678 | 130.70836 | 34088 ft | 467 kts | 278° |
| 2026-05-06 05:06 | 35.83551 | 130.62903 | 34088 ft | 467 kts | 280° |
| 2026-05-06 05:07 | 35.84564 | 130.55002 | 34090 ft | 467 kts | 281° |
| 2026-05-06 05:07 | 35.85579 | 130.47150 | 34066 ft | 467 kts | 281° |
| 2026-05-06 05:08 | 35.86585 | 130.39225 | 34065 ft | 467 kts | 282° |
| 2026-05-06 05:08 | 35.87574 | 130.31316 | 34082 ft | 467 kts | 282° |
| 2026-05-06 05:09 | 35.88556 | 130.23405 | 34068 ft | 467 kts | 282° |
| 2026-05-06 05:09 | 35.89537 | 130.15462 | 34061 ft | 467 kts | 282° |
| 2026-05-06 05:10 | 35.90512 | 130.07534 | 34061 ft | 467 kts | 283° |
| 2026-05-06 05:10 | 35.91474 | 129.99663 | 34067 ft | 467 kts | 283° |
| 2026-05-06 05:11 | 35.92443 | 129.91692 | 34048 ft | 466 kts | 283° |
| 2026-05-06 05:11 | 35.93395 | 129.83824 | 34041 ft | 466 kts | 283° |
| 2026-05-06 05:12 | 35.94348 | 129.75912 | 34053 ft | 466 kts | 283° |
| 2026-05-06 05:12 | 35.95293 | 129.67996 | 34045 ft | 466 kts | 283° |
| 2026-05-06 05:13 | 35.96233 | 129.60078 | 34038 ft | 466 kts | 283° |
| 2026-05-06 05:13 | 35.97238 | 129.52194 | 34028 ft | 463 kts | 288° |
| 2026-05-06 05:14 | 35.99434 | 129.44864 | 34030 ft | 451 kts | 303° |
| 2026-05-06 05:14 | 36.02861 | 129.38411 | 34037 ft | 447 kts | 309° |
| 2026-05-06 05:15 | 36.06486 | 129.32180 | 34033 ft | 447 kts | 309° |
| 2026-05-06 05:15 | 36.10132 | 129.25945 | 34035 ft | 446 kts | 309° |
| 2026-05-06 05:16 | 36.13739 | 129.19709 | 34028 ft | 445 kts | 309° |
| 2026-05-06 05:16 | 36.17258 | 129.13583 | 34033 ft | 438 kts | 309° |
| 2026-05-06 05:17 | 36.20822 | 129.07365 | 34024 ft | 445 kts | 308° |
| 2026-05-06 05:17 | 36.24400 | 129.01110 | 34030 ft | 444 kts | 308° |
| 2026-05-06 05:18 | 36.27967 | 128.94865 | 34021 ft | 443 kts | 308° |
| 2026-05-06 05:18 | 36.31523 | 128.88631 | 34021 ft | 443 kts | 308° |
| 2026-05-06 05:19 | 36.35076 | 128.82399 | 34034 ft | 442 kts | 308° |
| 2026-05-06 05:19 | 36.38622 | 128.76161 | 34024 ft | 442 kts | 308° |
| 2026-05-06 05:20 | 36.42160 | 128.69912 | 34021 ft | 442 kts | 308° |
| 2026-05-06 05:20 | 36.45663 | 128.63716 | 34018 ft | 441 kts | 307° |
| 2026-05-06 05:21 | 36.49192 | 128.57470 | 34025 ft | 441 kts | 307° |
| 2026-05-06 05:21 | 36.52718 | 128.51222 | 34013 ft | 441 kts | 307° |
| 2026-05-06 05:22 | 36.56240 | 128.44965 | 34022 ft | 441 kts | 307° |
| 2026-05-06 05:22 | 36.59755 | 128.38708 | 34014 ft | 441 kts | 307° |
| 2026-05-06 05:23 | 36.63262 | 128.32458 | 34012 ft | 441 kts | 307° |
| 2026-05-06 05:23 | 36.68576 | 128.23114 | 34017 ft | 440 kts | 307° |
| 2026-05-06 05:24 | 36.72097 | 128.16940 | 34026 ft | 440 kts | 307° |
| 2026-05-06 05:24 | 36.75649 | 128.10711 | 34021 ft | 440 kts | 307° |
| 2026-05-06 05:25 | 36.79178 | 128.04481 | 34024 ft | 440 kts | 307° |
| 2026-05-06 05:25 | 36.82702 | 127.98247 | 34021 ft | 440 kts | 307° |
| 2026-05-06 05:26 | 36.86235 | 127.91997 | 34021 ft | 440 kts | 307° |
| 2026-05-06 05:26 | 36.89742 | 127.85765 | 33767 ft | 434 kts | 306° |
| 2026-05-06 05:27 | 36.91472 | 127.82685 | 32899 ft | 435 kts | 306° |
| 2026-05-06 05:27 | 36.93223 | 127.79569 | 31893 ft | 441 kts | 306° |
| 2026-05-06 05:27 | 36.94997 | 127.76421 | 30983 ft | 444 kts | 306° |
| 2026-05-06 05:27 | 36.96778 | 127.73250 | 30044 ft | 448 kts | 306° |
| 2026-05-06 05:28 | 36.98575 | 127.70050 | 29082 ft | 449 kts | 305° |
| 2026-05-06 05:28 | 37.00365 | 127.66858 | 28361 ft | 446 kts | 305° |
| 2026-05-06 05:28 | 37.02140 | 127.63694 | 27653 ft | 443 kts | 305° |
| 2026-05-06 05:28 | 37.03905 | 127.60550 | 26955 ft | 440 kts | 304° |
| 2026-05-06 05:29 | 37.05626 | 127.57470 | 26373 ft | 435 kts | 304° |
| 2026-05-06 05:29 | 37.07327 | 127.54417 | 26242 ft | 420 kts | 304° |
| 2026-05-06 05:29 | 37.08970 | 127.51466 | 26130 ft | 405 kts | 304° |
| 2026-05-06 05:29 | 37.10559 | 127.48614 | 26009 ft | 391 kts | 304° |
| 2026-05-06 05:30 | 37.12092 | 127.45859 | 25848 ft | 380 kts | 304° |
| 2026-05-06 05:30 | 37.13583 | 127.43184 | 25678 ft | 369 kts | 304° |
| 2026-05-06 05:30 | 37.15037 | 127.40578 | 25525 ft | 359 kts | 303° |
| 2026-05-06 05:30 | 37.16591 | 127.38191 | 25368 ft | 351 kts | 314° |
| 2026-05-06 05:31 | 37.18558 | 127.36430 | 25226 ft | 346 kts | 330° |
| 2026-05-06 05:31 | 37.20832 | 127.35516 | 25063 ft | 345 kts | 347° |
| 2026-05-06 05:31 | 37.23200 | 127.35264 | 24960 ft | 335 kts | 347° |
| 2026-05-06 05:31 | 37.25387 | 127.34378 | 24365 ft | 332 kts | 328° |
| 2026-05-06 05:32 | 37.27281 | 127.32690 | 23597 ft | 338 kts | 313° |
| 2026-05-06 05:32 | 37.28753 | 127.30371 | 22668 ft | 345 kts | 297° |
| 2026-05-06 05:32 | 37.29751 | 127.27628 | 21774 ft | 354 kts | 291° |
| 2026-05-06 05:32 | 37.30687 | 127.24716 | 20860 ft | 364 kts | 291° |
| 2026-05-06 05:33 | 37.31672 | 127.21698 | 19876 ft | 374 kts | 291° |
| 2026-05-06 05:33 | 37.32688 | 127.18639 | 18871 ft | 385 kts | 291° |
| 2026-05-06 05:33 | 37.33732 | 127.15523 | 17851 ft | 395 kts | 291° |
| 2026-05-06 05:33 | 37.34788 | 127.12385 | 17130 ft | 395 kts | 291° |
| 2026-05-06 05:34 | 37.35871 | 127.09170 | 16457 ft | 393 kts | 291° |
| 2026-05-06 05:34 | 37.36936 | 127.06017 | 15820 ft | 391 kts | 291° |
| 2026-05-06 05:34 | 37.37999 | 127.02865 | 15162 ft | 390 kts | 291° |
| 2026-05-06 05:34 | 37.39054 | 126.99735 | 14514 ft | 389 kts | 291° |
| 2026-05-06 05:35 | 37.40104 | 126.96614 | 13848 ft | 387 kts | 291° |
| 2026-05-06 05:35 | 37.41241 | 126.93560 | 13282 ft | 383 kts | 297° |
| 2026-05-06 05:35 | 37.42715 | 126.90898 | 12922 ft | 363 kts | 307° |
| 2026-05-06 05:35 | 37.43796 | 126.89314 | 12612 ft | 343 kts | 309° |
| 2026-05-06 05:36 | 37.45440 | 126.87025 | 12166 ft | 317 kts | 309° |
| 2026-05-06 05:36 | 37.46880 | 126.85051 | 11830 ft | 295 kts | 309° |
| 2026-05-06 05:36 | 37.48221 | 126.83218 | 11554 ft | 274 kts | 309° |
| 2026-05-06 05:36 | 37.49476 | 126.81510 | 11271 ft | 258 kts | 309° |
| 2026-05-06 05:37 | 37.50670 | 126.79883 | 10885 ft | 248 kts | 309° |
| 2026-05-06 05:37 | 37.51831 | 126.78305 | 10436 ft | 244 kts | 309° |
| 2026-05-06 05:37 | 37.52980 | 126.76744 | 9912 ft | 242 kts | 309° |
| 2026-05-06 05:37 | 37.54064 | 126.75149 | 9273 ft | 241 kts | 301° |
| 2026-05-06 05:38 | 37.54936 | 126.73332 | 8396 ft | 248 kts | 296° |
| 2026-05-06 05:38 | 37.55767 | 126.71381 | 7407 ft | 257 kts | 295° |
| 2026-05-06 05:38 | 37.56597 | 126.69366 | 6579 ft | 261 kts | 295° |
| 2026-05-06 05:38 | 37.57437 | 126.67298 | 6158 ft | 264 kts | 295° |
| 2026-05-06 05:39 | 37.58272 | 126.65254 | 5861 ft | 261 kts | 295° |
| 2026-05-06 05:39 | 37.59055 | 126.63331 | 5516 ft | 260 kts | 294° |
| 2026-05-06 05:39 | 37.59876 | 126.61309 | 5193 ft | 258 kts | 294° |
| 2026-05-06 05:39 | 37.60688 | 126.59296 | 4826 ft | 258 kts | 294° |
| 2026-05-06 05:40 | 37.61493 | 126.57277 | 4501 ft | 257 kts | 293° |
| 2026-05-06 05:40 | 37.62028 | 126.55938 | 4277 ft | 256 kts | 293° |
| 2026-05-06 05:40 | 37.62821 | 126.53938 | 4036 ft | 253 kts | 293° |
| 2026-05-06 05:40 | 37.63619 | 126.51955 | 4021 ft | 254 kts | 293° |
| 2026-05-06 05:41 | 37.64412 | 126.49962 | 4007 ft | 255 kts | 293° |
| 2026-05-06 05:41 | 37.65211 | 126.47959 | 4005 ft | 255 kts | 293° |
| 2026-05-06 05:41 | 37.66018 | 126.45966 | 4014 ft | 255 kts | 293° |
| 2026-05-06 05:41 | 37.66819 | 126.43966 | 4010 ft | 255 kts | 293° |
| 2026-05-06 05:42 | 37.67578 | 126.41946 | 3985 ft | 253 kts | 288° |
| 2026-05-06 05:42 | 37.67864 | 126.39804 | 3578 ft | 247 kts | 264° |
| 2026-05-06 05:42 | 37.67640 | 126.37691 | 3356 ft | 246 kts | 258° |
| 2026-05-06 05:42 | 37.67344 | 126.35602 | 3257 ft | 236 kts | 258° |
| 2026-05-06 05:43 | 37.67068 | 126.33608 | 3174 ft | 223 kts | 258° |
| 2026-05-06 05:43 | 37.66759 | 126.31778 | 3050 ft | 200 kts | 248° |
| 2026-05-06 05:43 | 37.66009 | 126.30486 | 3043 ft | 173 kts | 217° |
| 2026-05-06 05:43 | 37.64947 | 126.29847 | 3036 ft | 169 kts | 203° |
| 2026-05-06 05:44 | 37.63807 | 126.29434 | 3009 ft | 172 kts | 196° |
| 2026-05-06 05:44 | 37.62609 | 126.29289 | 3004 ft | 176 kts | 185° |
| 2026-05-06 05:44 | 37.61384 | 126.29483 | 3006 ft | 180 kts | 173° |
| 2026-05-06 05:44 | 37.60249 | 126.30055 | 3002 ft | 168 kts | 156° |
| 2026-05-06 05:45 | 37.59332 | 126.30836 | 2972 ft | 152 kts | 152° |
| 2026-05-06 05:45 | 37.58496 | 126.31549 | 2798 ft | 140 kts | 154° |
| 2026-05-06 05:45 | 37.57716 | 126.32238 | 2590 ft | 135 kts | 153° |
| 2026-05-06 05:45 | 37.56951 | 126.32923 | 2410 ft | 134 kts | 154° |
| 2026-05-06 05:46 | 37.56190 | 126.33600 | 2223 ft | 134 kts | 154° |
| 2026-05-06 05:46 | 37.55429 | 126.34280 | 2054 ft | 133 kts | 155° |
| 2026-05-06 05:46 | 37.54678 | 126.34951 | 1876 ft | 131 kts | 155° |
| 2026-05-06 05:46 | 37.53939 | 126.35611 | 1702 ft | 130 kts | 155° |
| 2026-05-06 05:47 | 37.53207 | 126.36262 | 1516 ft | 130 kts | 153° |
| 2026-05-06 05:47 | 37.52470 | 126.36924 | 1346 ft | 129 kts | 152° |
| 2026-05-06 05:47 | 37.51733 | 126.37582 | 1168 ft | 129 kts | 152° |
| 2026-05-06 05:47 | 37.51001 | 126.38237 | 995 ft | 129 kts | 153° |
| 2026-05-06 05:48 | 37.50264 | 126.38893 | 810 ft | 130 kts | 149° |
| 2026-05-06 05:48 | 37.49531 | 126.39551 | 623 ft | 130 kts | 149° |
| 2026-05-06 05:48 | 37.48788 | 126.40215 | 431 ft | 131 kts | 150° |
| 2026-05-06 05:48 | 37.48048 | 126.40876 | 279 ft | 130 kts | 149° |
| 2026-05-06 05:49 | 37.47314 | 126.41549 | 85 ft | 131 kts | 150° |
| 2026-05-06 05:49 | 37.46602 | 126.42155 | 39 ft | 108 kts | 148° |
| 2026-05-06 05:49 | 37.46085 | 126.42622 | 37 ft | 77 kts | 144° |
| 2026-05-06 05:49 | 37.45734 | 126.42941 | 39 ft | 43 kts | 139° |
| 2026-05-06 05:50 | 37.45600 | 126.43182 | 39 ft | 23 kts | 117° |
| 2026-05-06 05:50 | 37.45547 | 126.43312 | 39 ft | 11 kts | 117° |
| 2026-05-06 05:50 | 37.45532 | 126.43347 | 39 ft | 0 kts | 120° |
| 2026-05-06 05:50 | 37.45524 | 126.43363 | 39 ft | 7 kts | 124° |
| 2026-05-06 05:51 | 37.45459 | 126.43441 | 39 ft | 19 kts | 141° |
| 2026-05-06 05:51 | 37.45327 | 126.43559 | 39 ft | 25 kts | 145° |
| 2026-05-06 05:51 | 37.45175 | 126.43694 | 39 ft | 27 kts | 144° |
| 2026-05-06 05:51 | 37.45017 | 126.43835 | 39 ft | 28 kts | 143° |
| 2026-05-06 05:52 | 37.44974 | 126.44032 | 39 ft | 24 kts | 92° |
| 2026-05-06 05:52 | 37.45041 | 126.44224 | 39 ft | 25 kts | 53° |
| 2026-05-06 05:52 | 37.45150 | 126.44410 | 39 ft | 27 kts | 54° |
| 2026-05-06 05:52 | 37.45229 | 126.44601 | 39 ft | 23 kts | 88° |
| 2026-05-06 05:53 | 37.45192 | 126.44708 | 39 ft | 13 kts | 127° |
| 2026-05-06 05:53 | 37.45136 | 126.44805 | 39 ft | 12 kts | 125° |
| 2026-05-06 05:53 | 37.45103 | 126.44827 | 39 ft | 1 kts | 202° |
| 2026-05-06 05:53 | 37.45097 | 126.44820 | 39 ft | 2 kts | 219° |
| 2026-05-06 05:54 | 37.45079 | 126.44801 | 39 ft | 4 kts | 216° |
| 2026-05-06 05:54 | 37.45054 | 126.44778 | 39 ft | 6 kts | 215° |
| 2026-05-06 05:54 | 37.45050 | 126.44775 | 39 ft | 0 kts | 215° |
| 2026-05-06 05:54 | 37.45047 | 126.44772 | 39 ft | 1 kts | 215° |
| 2026-05-06 05:55 | 37.45035 | 126.44761 | 39 ft | 1 kts | 215° |
| 2026-05-06 05:55 | 37.45034 | 126.44761 | 39 ft | 0 kts | 216° |
| 2026-05-06 05:55 | 37.45034 | 126.44760 | 39 ft | 0 kts | 216° |
| 2026-05-06 05:56 | 37.45027 | 126.44754 | 38 ft | 0 kts | 216° |